sensor_id;sensor_type;location;lat;lon;timestamp;P1;durP1;ratioP1;P2;durP2;ratioP2
51358;SDS011;37448;51.588;7.248;2023-04-25T00:01:05;7.05;;;3.15;;
51358;SDS011;37448;51.588;7.248;2023-04-25T00:03:05;9.77;;;3.65;;
51358;SDS011;37448;51.588;7.248;2023-04-25T00:05:05;7.50;;;3.45;;
51358;SDS011;37448;51.588;7.248;2023-04-25T00:07:06;9.25;;;3.67;;
51358;SDS011;37448;51.588;7.248;2023-04-25T00:09:06;13.85;;;4.07;;
51358;SDS011;37448;51.588;7.248;2023-04-25T00:11:09;7.68;;;4.13;;
51358;SDS011;37448;51.588;7.248;2023-04-25T00:13:09;8.15;;;2.95;;
51358;SDS011;37448;51.588;7.248;2023-04-25T00:15:11;9.05;;;3.05;;
51358;SDS011;37448;51.588;7.248;2023-04-25T00:17:12;11.52;;;3.72;;
51358;SDS011;37448;51.588;7.248;2023-04-25T00:19:12;6.00;;;3.38;;
51358;SDS011;37448;51.588;7.248;2023-04-25T00:21:13;8.93;;;3.13;;
51358;SDS011;37448;51.588;7.248;2023-04-25T00:23:14;7.60;;;2.80;;
51358;SDS011;37448;51.588;7.248;2023-04-25T00:25:17;9.02;;;3.33;;
51358;SDS011;37448;51.588;7.248;2023-04-25T00:27:17;11.30;;;3.10;;
51358;SDS011;37448;51.588;7.248;2023-04-25T00:29:18;7.68;;;4.25;;
51358;SDS011;37448;51.588;7.248;2023-04-25T00:31:18;9.18;;;3.58;;
51358;SDS011;37448;51.588;7.248;2023-04-25T00:33:19;10.27;;;3.55;;
51358;SDS011;37448;51.588;7.248;2023-04-25T00:35:19;7.53;;;2.80;;
51358;SDS011;37448;51.588;7.248;2023-04-25T00:37:20;8.07;;;3.67;;
51358;SDS011;37448;51.588;7.248;2023-04-25T00:39:21;5.85;;;2.70;;
51358;SDS011;37448;51.588;7.248;2023-04-25T00:41:21;9.68;;;3.05;;
51358;SDS011;37448;51.588;7.248;2023-04-25T00:43:22;9.70;;;3.38;;
51358;SDS011;37448;51.588;7.248;2023-04-25T00:45:27;6.95;;;2.63;;
51358;SDS011;37448;51.588;7.248;2023-04-25T00:47:29;5.60;;;3.35;;
51358;SDS011;37448;51.588;7.248;2023-04-25T00:49:29;9.25;;;3.75;;
51358;SDS011;37448;51.588;7.248;2023-04-25T00:51:30;9.95;;;3.13;;
51358;SDS011;37448;51.588;7.248;2023-04-25T00:53:31;5.57;;;2.75;;
51358;SDS011;37448;51.588;7.248;2023-04-25T00:55:32;7.38;;;2.75;;
51358;SDS011;37448;51.588;7.248;2023-04-25T00:57:34;6.95;;;3.08;;
51358;SDS011;37448;51.588;7.248;2023-04-25T00:59:35;8.43;;;2.70;;
51358;SDS011;37448;51.588;7.248;2023-04-25T01:01:37;7.43;;;2.97;;
51358;SDS011;37448;51.588;7.248;2023-04-25T01:03:39;7.57;;;2.83;;
51358;SDS011;37448;51.588;7.248;2023-04-25T01:05:43;4.75;;;2.60;;
51358;SDS011;37448;51.588;7.248;2023-04-25T01:07:43;5.97;;;3.13;;
51358;SDS011;37448;51.588;7.248;2023-04-25T01:09:45;5.78;;;2.45;;
51358;SDS011;37448;51.588;7.248;2023-04-25T01:11:46;8.20;;;2.50;;
51358;SDS011;37448;51.588;7.248;2023-04-25T01:13:46;4.38;;;2.58;;
51358;SDS011;37448;51.588;7.248;2023-04-25T01:15:47;7.55;;;3.05;;
51358;SDS011;37448;51.588;7.248;2023-04-25T01:17:47;7.65;;;3.50;;
51358;SDS011;37448;51.588;7.248;2023-04-25T01:19:49;6.32;;;2.90;;
51358;SDS011;37448;51.588;7.248;2023-04-25T01:21:51;4.20;;;2.10;;
51358;SDS011;37448;51.588;7.248;2023-04-25T01:23:51;11.73;;;2.75;;
51358;SDS011;37448;51.588;7.248;2023-04-25T01:25:53;4.95;;;1.98;;
51358;SDS011;37448;51.588;7.248;2023-04-25T01:27:55;5.60;;;2.65;;
51358;SDS011;37448;51.588;7.248;2023-04-25T01:29:56;6.63;;;2.05;;
51358;SDS011;37448;51.588;7.248;2023-04-25T01:31:57;5.13;;;1.90;;
51358;SDS011;37448;51.588;7.248;2023-04-25T01:33:58;8.20;;;2.65;;
51358;SDS011;37448;51.588;7.248;2023-04-25T01:35:58;6.25;;;2.58;;
51358;SDS011;37448;51.588;7.248;2023-04-25T01:38:00;5.68;;;1.95;;
51358;SDS011;37448;51.588;7.248;2023-04-25T01:40:01;7.15;;;2.53;;
51358;SDS011;37448;51.588;7.248;2023-04-25T01:42:02;5.43;;;2.63;;
51358;SDS011;37448;51.588;7.248;2023-04-25T01:44:04;4.72;;;2.25;;
51358;SDS011;37448;51.588;7.248;2023-04-25T01:46:04;4.03;;;2.10;;
51358;SDS011;37448;51.588;7.248;2023-04-25T01:48:05;5.93;;;2.33;;
51358;SDS011;37448;51.588;7.248;2023-04-25T01:50:06;4.85;;;2.97;;
51358;SDS011;37448;51.588;7.248;2023-04-25T01:52:08;4.90;;;2.35;;
51358;SDS011;37448;51.588;7.248;2023-04-25T01:54:08;4.10;;;2.15;;
51358;SDS011;37448;51.588;7.248;2023-04-25T01:56:11;8.95;;;2.72;;
51358;SDS011;37448;51.588;7.248;2023-04-25T01:58:12;4.75;;;1.80;;
51358;SDS011;37448;51.588;7.248;2023-04-25T02:00:29;7.88;;;2.72;;
51358;SDS011;37448;51.588;7.248;2023-04-25T02:02:29;7.88;;;2.80;;
51358;SDS011;37448;51.588;7.248;2023-04-25T02:04:30;7.18;;;2.28;;
51358;SDS011;37448;51.588;7.248;2023-04-25T02:06:31;6.43;;;2.58;;
51358;SDS011;37448;51.588;7.248;2023-04-25T02:08:32;7.13;;;2.60;;
51358;SDS011;37448;51.588;7.248;2023-04-25T02:10:33;6.00;;;2.72;;
51358;SDS011;37448;51.588;7.248;2023-04-25T02:12:53;7.82;;;2.90;;
51358;SDS011;37448;51.588;7.248;2023-04-25T02:14:59;6.68;;;2.63;;
51358;SDS011;37448;51.588;7.248;2023-04-25T02:17:08;6.82;;;3.10;;
51358;SDS011;37448;51.588;7.248;2023-04-25T02:19:09;8.50;;;3.20;;
51358;SDS011;37448;51.588;7.248;2023-04-25T02:21:10;7.05;;;3.95;;
51358;SDS011;37448;51.588;7.248;2023-04-25T02:23:11;10.05;;;3.22;;
51358;SDS011;37448;51.588;7.248;2023-04-25T02:25:12;9.43;;;4.88;;
51358;SDS011;37448;51.588;7.248;2023-04-25T02:27:12;9.45;;;4.07;;
51358;SDS011;37448;51.588;7.248;2023-04-25T02:29:13;7.40;;;3.58;;
51358;SDS011;37448;51.588;7.248;2023-04-25T02:31:16;9.85;;;4.20;;
51358;SDS011;37448;51.588;7.248;2023-04-25T02:33:16;14.13;;;4.20;;
51358;SDS011;37448;51.588;7.248;2023-04-25T02:35:17;9.55;;;4.40;;
51358;SDS011;37448;51.588;7.248;2023-04-25T02:37:17;7.72;;;4.35;;
51358;SDS011;37448;51.588;7.248;2023-04-25T02:39:19;8.77;;;3.88;;
51358;SDS011;37448;51.588;7.248;2023-04-25T02:41:22;11.43;;;4.10;;
51358;SDS011;37448;51.588;7.248;2023-04-25T02:43:22;8.95;;;3.90;;
51358;SDS011;37448;51.588;7.248;2023-04-25T02:45:25;10.43;;;4.32;;
51358;SDS011;37448;51.588;7.248;2023-04-25T02:47:26;8.95;;;3.90;;
51358;SDS011;37448;51.588;7.248;2023-04-25T02:49:26;10.05;;;4.40;;
51358;SDS011;37448;51.588;7.248;2023-04-25T02:51:27;8.23;;;3.38;;
51358;SDS011;37448;51.588;7.248;2023-04-25T02:53:28;8.93;;;4.00;;
51358;SDS011;37448;51.588;7.248;2023-04-25T02:55:28;10.45;;;4.50;;
51358;SDS011;37448;51.588;7.248;2023-04-25T02:57:29;9.65;;;4.00;;
51358;SDS011;37448;51.588;7.248;2023-04-25T02:59:31;8.48;;;4.47;;
51358;SDS011;37448;51.588;7.248;2023-04-25T03:01:31;4.75;;;3.22;;
51358;SDS011;37448;51.588;7.248;2023-04-25T03:03:31;9.88;;;3.35;;
51358;SDS011;37448;51.588;7.248;2023-04-25T03:05:32;6.38;;;3.05;;
51358;SDS011;37448;51.588;7.248;2023-04-25T03:07:32;6.13;;;2.58;;
51358;SDS011;37448;51.588;7.248;2023-04-25T03:09:33;7.57;;;3.38;;
51358;SDS011;37448;51.588;7.248;2023-04-25T03:11:33;6.55;;;3.20;;
51358;SDS011;37448;51.588;7.248;2023-04-25T03:13:34;6.70;;;3.10;;
51358;SDS011;37448;51.588;7.248;2023-04-25T03:15:35;11.52;;;3.53;;
51358;SDS011;37448;51.588;7.248;2023-04-25T03:17:36;12.40;;;3.38;;
51358;SDS011;37448;51.588;7.248;2023-04-25T03:19:36;11.40;;;3.40;;
51358;SDS011;37448;51.588;7.248;2023-04-25T03:21:37;9.70;;;2.95;;
51358;SDS011;37448;51.588;7.248;2023-04-25T03:23:37;6.47;;;2.55;;
51358;SDS011;37448;51.588;7.248;2023-04-25T03:25:37;10.43;;;3.60;;
51358;SDS011;37448;51.588;7.248;2023-04-25T03:27:38;5.93;;;3.22;;
51358;SDS011;37448;51.588;7.248;2023-04-25T03:29:39;7.70;;;3.80;;
51358;SDS011;37448;51.588;7.248;2023-04-25T03:31:40;8.20;;;3.05;;
51358;SDS011;37448;51.588;7.248;2023-04-25T03:33:41;6.65;;;3.40;;
51358;SDS011;37448;51.588;7.248;2023-04-25T03:35:41;10.25;;;3.53;;
51358;SDS011;37448;51.588;7.248;2023-04-25T03:37:43;11.77;;;3.83;;
51358;SDS011;37448;51.588;7.248;2023-04-25T03:39:49;9.80;;;3.67;;
51358;SDS011;37448;51.588;7.248;2023-04-25T03:41:51;8.18;;;2.78;;
51358;SDS011;37448;51.588;7.248;2023-04-25T03:43:52;6.78;;;3.40;;
51358;SDS011;37448;51.588;7.248;2023-04-25T03:45:53;6.47;;;2.58;;
51358;SDS011;37448;51.588;7.248;2023-04-25T03:47:55;6.10;;;2.78;;
51358;SDS011;37448;51.588;7.248;2023-04-25T03:49:56;4.53;;;2.10;;
51358;SDS011;37448;51.588;7.248;2023-04-25T03:51:57;5.78;;;2.03;;
51358;SDS011;37448;51.588;7.248;2023-04-25T03:53:58;6.43;;;1.75;;
51358;SDS011;37448;51.588;7.248;2023-04-25T03:56:04;8.45;;;1.92;;
51358;SDS011;37448;51.588;7.248;2023-04-25T03:58:07;9.93;;;2.35;;
51358;SDS011;37448;51.588;7.248;2023-04-25T04:00:09;3.85;;;1.88;;
51358;SDS011;37448;51.588;7.248;2023-04-25T04:02:15;3.65;;;1.75;;
51358;SDS011;37448;51.588;7.248;2023-04-25T04:04:16;5.47;;;1.95;;
51358;SDS011;37448;51.588;7.248;2023-04-25T04:06:17;2.85;;;1.85;;
51358;SDS011;37448;51.588;7.248;2023-04-25T04:08:22;6.75;;;1.95;;
51358;SDS011;37448;51.588;7.248;2023-04-25T04:10:23;3.00;;;2.05;;
51358;SDS011;37448;51.588;7.248;2023-04-25T04:12:23;5.63;;;1.85;;
51358;SDS011;37448;51.588;7.248;2023-04-25T04:14:24;3.65;;;1.80;;
51358;SDS011;37448;51.588;7.248;2023-04-25T04:16:25;6.13;;;1.63;;
51358;SDS011;37448;51.588;7.248;2023-04-25T04:18:26;3.28;;;1.80;;
51358;SDS011;37448;51.588;7.248;2023-04-25T04:20:27;5.88;;;1.88;;
51358;SDS011;37448;51.588;7.248;2023-04-25T04:22:29;8.95;;;2.88;;
51358;SDS011;37448;51.588;7.248;2023-04-25T04:24:33;6.03;;;2.40;;
51358;SDS011;37448;51.588;7.248;2023-04-25T04:26:36;4.47;;;2.50;;
51358;SDS011;37448;51.588;7.248;2023-04-25T04:28:45;7.47;;;2.47;;
51358;SDS011;37448;51.588;7.248;2023-04-25T04:31:06;7.43;;;2.50;;
51358;SDS011;37448;51.588;7.248;2023-04-25T04:33:08;9.93;;;2.38;;
51358;SDS011;37448;51.588;7.248;2023-04-25T04:35:09;7.63;;;2.75;;
51358;SDS011;37448;51.588;7.248;2023-04-25T04:37:12;6.10;;;2.42;;
51358;SDS011;37448;51.588;7.248;2023-04-25T04:39:13;4.68;;;2.10;;
51358;SDS011;37448;51.588;7.248;2023-04-25T04:41:37;3.67;;;1.58;;
51358;SDS011;37448;51.588;7.248;2023-04-25T04:44:01;4.03;;;1.95;;
51358;SDS011;37448;51.588;7.248;2023-04-25T04:46:09;9.48;;;2.35;;
51358;SDS011;37448;51.588;7.248;2023-04-25T04:48:24;7.15;;;2.05;;
51358;SDS011;37448;51.588;7.248;2023-04-25T04:50:43;5.47;;;2.17;;
51358;SDS011;37448;51.588;7.248;2023-04-25T04:52:56;6.10;;;1.67;;
51358;SDS011;37448;51.588;7.248;2023-04-25T04:55:10;5.05;;;2.00;;
51358;SDS011;37448;51.588;7.248;2023-04-25T04:57:28;8.82;;;2.15;;
51358;SDS011;37448;51.588;7.248;2023-04-25T04:59:49;6.13;;;2.40;;
51358;SDS011;37448;51.588;7.248;2023-04-25T05:02:08;4.43;;;2.00;;
51358;SDS011;37448;51.588;7.248;2023-04-25T05:04:18;15.73;;;6.40;;
51358;SDS011;37448;51.588;7.248;2023-04-25T05:06:41;15.63;;;6.53;;
51358;SDS011;37448;51.588;7.248;2023-04-25T05:08:50;8.88;;;3.22;;
51358;SDS011;37448;51.588;7.248;2023-04-25T05:11:10;5.53;;;2.70;;
51358;SDS011;37448;51.588;7.248;2023-04-25T05:13:22;8.23;;;2.70;;
51358;SDS011;37448;51.588;7.248;2023-04-25T05:15:35;7.38;;;2.38;;
51358;SDS011;37448;51.588;7.248;2023-04-25T05:17:57;7.28;;;2.65;;
51358;SDS011;37448;51.588;7.248;2023-04-25T05:20:05;5.82;;;2.35;;
51358;SDS011;37448;51.588;7.248;2023-04-25T05:22:28;7.15;;;2.70;;
51358;SDS011;37448;51.588;7.248;2023-04-25T05:24:34;6.25;;;2.40;;
51358;SDS011;37448;51.588;7.248;2023-04-25T05:26:46;8.10;;;2.85;;
51358;SDS011;37448;51.588;7.248;2023-04-25T05:29:06;10.80;;;2.53;;
51358;SDS011;37448;51.588;7.248;2023-04-25T05:31:15;8.60;;;2.80;;
51358;SDS011;37448;51.588;7.248;2023-04-25T05:33:33;9.25;;;2.83;;
51358;SDS011;37448;51.588;7.248;2023-04-25T05:35:35;7.45;;;2.95;;
51358;SDS011;37448;51.588;7.248;2023-04-25T05:37:35;9.80;;;3.00;;
51358;SDS011;37448;51.588;7.248;2023-04-25T05:39:43;10.25;;;3.60;;
51358;SDS011;37448;51.588;7.248;2023-04-25T05:42:01;6.55;;;2.88;;
51358;SDS011;37448;51.588;7.248;2023-04-25T05:44:29;5.82;;;2.70;;
51358;SDS011;37448;51.588;7.248;2023-04-25T05:46:50;5.38;;;3.13;;
51358;SDS011;37448;51.588;7.248;2023-04-25T05:49:25;9.65;;;3.92;;
51358;SDS011;37448;51.588;7.248;2023-04-25T05:51:37;9.93;;;3.22;;
51358;SDS011;37448;51.588;7.248;2023-04-25T05:54:07;11.50;;;3.40;;
51358;SDS011;37448;51.588;7.248;2023-04-25T05:56:08;8.32;;;2.95;;
51358;SDS011;37448;51.588;7.248;2023-04-25T05:58:09;10.60;;;3.30;;
51358;SDS011;37448;51.588;7.248;2023-04-25T06:00:09;10.07;;;3.92;;
51358;SDS011;37448;51.588;7.248;2023-04-25T06:02:18;8.40;;;3.85;;
51358;SDS011;37448;51.588;7.248;2023-04-25T06:04:21;5.40;;;2.40;;
51358;SDS011;37448;51.588;7.248;2023-04-25T06:06:22;10.75;;;4.20;;
51358;SDS011;37448;51.588;7.248;2023-04-25T06:08:22;7.72;;;4.60;;
51358;SDS011;37448;51.588;7.248;2023-04-25T06:10:22;11.20;;;5.05;;
51358;SDS011;37448;51.588;7.248;2023-04-25T06:12:23;10.05;;;3.72;;
51358;SDS011;37448;51.588;7.248;2023-04-25T06:14:25;12.90;;;3.75;;
51358;SDS011;37448;51.588;7.248;2023-04-25T06:16:26;14.45;;;3.85;;
51358;SDS011;37448;51.588;7.248;2023-04-25T06:18:26;9.50;;;3.42;;
51358;SDS011;37448;51.588;7.248;2023-04-25T06:20:27;17.27;;;4.10;;
51358;SDS011;37448;51.588;7.248;2023-04-25T06:22:31;8.98;;;3.15;;
51358;SDS011;37448;51.588;7.248;2023-04-25T06:24:31;12.45;;;3.58;;
51358;SDS011;37448;51.588;7.248;2023-04-25T06:26:32;8.57;;;3.65;;
51358;SDS011;37448;51.588;7.248;2023-04-25T06:28:32;10.32;;;3.35;;
51358;SDS011;37448;51.588;7.248;2023-04-25T06:30:33;7.25;;;3.65;;
51358;SDS011;37448;51.588;7.248;2023-04-25T06:32:39;15.68;;;4.13;;
51358;SDS011;37448;51.588;7.248;2023-04-25T06:34:39;13.52;;;4.10;;
51358;SDS011;37448;51.588;7.248;2023-04-25T06:36:40;12.65;;;3.50;;
51358;SDS011;37448;51.588;7.248;2023-04-25T06:38:43;9.40;;;3.35;;
51358;SDS011;37448;51.588;7.248;2023-04-25T06:40:45;8.70;;;3.45;;
51358;SDS011;37448;51.588;7.248;2023-04-25T06:42:46;8.80;;;3.15;;
51358;SDS011;37448;51.588;7.248;2023-04-25T06:45:05;9.07;;;2.72;;
51358;SDS011;37448;51.588;7.248;2023-04-25T06:47:06;6.55;;;2.88;;
51358;SDS011;37448;51.588;7.248;2023-04-25T06:49:06;13.40;;;3.72;;
51358;SDS011;37448;51.588;7.248;2023-04-25T06:51:07;10.25;;;2.92;;
51358;SDS011;37448;51.588;7.248;2023-04-25T06:53:09;10.68;;;3.22;;
51358;SDS011;37448;51.588;7.248;2023-04-25T06:55:10;9.30;;;2.60;;
51358;SDS011;37448;51.588;7.248;2023-04-25T06:57:27;14.77;;;3.92;;
51358;SDS011;37448;51.588;7.248;2023-04-25T06:59:29;4.43;;;2.83;;
51358;SDS011;37448;51.588;7.248;2023-04-25T07:01:30;5.35;;;2.60;;
51358;SDS011;37448;51.588;7.248;2023-04-25T07:03:31;9.93;;;3.05;;
51358;SDS011;37448;51.588;7.248;2023-04-25T07:05:35;8.65;;;2.92;;
51358;SDS011;37448;51.588;7.248;2023-04-25T07:07:36;12.05;;;3.05;;
51358;SDS011;37448;51.588;7.248;2023-04-25T07:09:36;13.32;;;2.92;;
51358;SDS011;37448;51.588;7.248;2023-04-25T07:11:38;13.45;;;3.15;;
51358;SDS011;37448;51.588;7.248;2023-04-25T07:13:38;9.35;;;2.85;;
51358;SDS011;37448;51.588;7.248;2023-04-25T07:15:39;6.60;;;2.20;;
51358;SDS011;37448;51.588;7.248;2023-04-25T07:17:40;8.00;;;2.13;;
51358;SDS011;37448;51.588;7.248;2023-04-25T07:19:40;5.38;;;2.20;;
51358;SDS011;37448;51.588;7.248;2023-04-25T07:21:42;8.63;;;2.28;;
51358;SDS011;37448;51.588;7.248;2023-04-25T07:23:43;10.30;;;3.17;;
51358;SDS011;37448;51.588;7.248;2023-04-25T07:25:48;7.45;;;3.25;;
51358;SDS011;37448;51.588;7.248;2023-04-25T07:27:53;6.30;;;1.73;;
51358;SDS011;37448;51.588;7.248;2023-04-25T07:29:55;8.77;;;2.25;;
51358;SDS011;37448;51.588;7.248;2023-04-25T07:31:57;12.02;;;2.33;;
51358;SDS011;37448;51.588;7.248;2023-04-25T07:33:57;9.90;;;2.80;;
51358;SDS011;37448;51.588;7.248;2023-04-25T07:35:58;11.68;;;3.00;;
51358;SDS011;37448;51.588;7.248;2023-04-25T07:37:58;9.30;;;2.40;;
51358;SDS011;37448;51.588;7.248;2023-04-25T07:39:59;6.60;;;2.75;;
51358;SDS011;37448;51.588;7.248;2023-04-25T07:41:59;8.70;;;3.30;;
51358;SDS011;37448;51.588;7.248;2023-04-25T07:44:03;5.82;;;2.35;;
51358;SDS011;37448;51.588;7.248;2023-04-25T07:46:05;9.55;;;2.83;;
51358;SDS011;37448;51.588;7.248;2023-04-25T07:48:07;9.13;;;3.90;;
51358;SDS011;37448;51.588;7.248;2023-04-25T07:50:11;10.30;;;2.67;;
51358;SDS011;37448;51.588;7.248;2023-04-25T07:52:11;6.00;;;2.50;;
51358;SDS011;37448;51.588;7.248;2023-04-25T07:54:17;7.82;;;1.92;;
51358;SDS011;37448;51.588;7.248;2023-04-25T07:56:22;8.95;;;1.70;;
51358;SDS011;37448;51.588;7.248;2023-04-25T07:58:25;7.03;;;2.60;;
51358;SDS011;37448;51.588;7.248;2023-04-25T08:00:29;5.38;;;2.20;;
51358;SDS011;37448;51.588;7.248;2023-04-25T08:02:50;6.80;;;2.00;;
51358;SDS011;37448;51.588;7.248;2023-04-25T08:04:51;7.97;;;2.58;;
51358;SDS011;37448;51.588;7.248;2023-04-25T08:06:53;9.40;;;2.05;;
51358;SDS011;37448;51.588;7.248;2023-04-25T08:08:58;9.93;;;3.10;;
51358;SDS011;37448;51.588;7.248;2023-04-25T08:11:05;7.32;;;2.90;;
51358;SDS011;37448;51.588;7.248;2023-04-25T08:13:06;7.97;;;2.50;;
51358;SDS011;37448;51.588;7.248;2023-04-25T08:15:06;6.57;;;2.55;;
51358;SDS011;37448;51.588;7.248;2023-04-25T08:17:11;6.38;;;2.35;;
51358;SDS011;37448;51.588;7.248;2023-04-25T08:19:14;4.30;;;2.10;;
51358;SDS011;37448;51.588;7.248;2023-04-25T08:21:15;4.65;;;1.77;;
51358;SDS011;37448;51.588;7.248;2023-04-25T08:23:15;4.53;;;1.70;;
51358;SDS011;37448;51.588;7.248;2023-04-25T08:25:36;8.55;;;2.28;;
51358;SDS011;37448;51.588;7.248;2023-04-25T08:27:37;6.90;;;2.72;;
51358;SDS011;37448;51.588;7.248;2023-04-25T08:29:39;7.53;;;2.70;;
51358;SDS011;37448;51.588;7.248;2023-04-25T08:31:39;8.50;;;3.50;;
51358;SDS011;37448;51.588;7.248;2023-04-25T08:33:41;5.40;;;2.47;;
51358;SDS011;37448;51.588;7.248;2023-04-25T08:35:56;5.63;;;2.15;;
51358;SDS011;37448;51.588;7.248;2023-04-25T08:37:58;4.45;;;2.50;;
51358;SDS011;37448;51.588;7.248;2023-04-25T08:39:59;5.75;;;2.33;;
51358;SDS011;37448;51.588;7.248;2023-04-25T08:42:15;6.10;;;2.35;;
51358;SDS011;37448;51.588;7.248;2023-04-25T08:44:15;7.50;;;2.35;;
51358;SDS011;37448;51.588;7.248;2023-04-25T08:46:19;3.60;;;1.42;;
51358;SDS011;37448;51.588;7.248;2023-04-25T08:48:43;3.47;;;1.60;;
51358;SDS011;37448;51.588;7.248;2023-04-25T08:52:53;6.28;;;1.55;;
51358;SDS011;37448;51.588;7.248;2023-04-25T08:54:54;5.85;;;1.38;;
51358;SDS011;37448;51.588;7.248;2023-04-25T08:56:56;6.38;;;1.40;;
51358;SDS011;37448;51.588;7.248;2023-04-25T08:58:58;7.22;;;1.50;;
51358;SDS011;37448;51.588;7.248;2023-04-25T09:00:58;7.10;;;1.40;;
51358;SDS011;37448;51.588;7.248;2023-04-25T09:03:01;4.70;;;1.75;;
51358;SDS011;37448;51.588;7.248;2023-04-25T09:05:06;7.22;;;1.70;;
51358;SDS011;37448;51.588;7.248;2023-04-25T09:07:07;7.00;;;1.60;;
51358;SDS011;37448;51.588;7.248;2023-04-25T09:09:08;9.15;;;2.00;;
51358;SDS011;37448;51.588;7.248;2023-04-25T09:11:12;7.78;;;1.88;;
51358;SDS011;37448;51.588;7.248;2023-04-25T09:15:39;4.53;;;1.15;;
51358;SDS011;37448;51.588;7.248;2023-04-25T09:18:21;6.90;;;1.60;;
51358;SDS011;37448;51.588;7.248;2023-04-25T09:20:42;5.60;;;1.48;;
51358;SDS011;37448;51.588;7.248;2023-04-25T09:22:43;8.98;;;1.77;;
51358;SDS011;37448;51.588;7.248;2023-04-25T09:24:45;6.07;;;2.30;;
51358;SDS011;37448;51.588;7.248;2023-04-25T09:26:47;6.22;;;1.67;;
51358;SDS011;37448;51.588;7.248;2023-04-25T09:28:48;5.35;;;1.50;;
51358;SDS011;37448;51.588;7.248;2023-04-25T09:30:54;8.48;;;1.48;;
51358;SDS011;37448;51.588;7.248;2023-04-25T09:33:16;4.38;;;1.02;;
51358;SDS011;37448;51.588;7.248;2023-04-25T09:35:24;7.45;;;1.75;;
51358;SDS011;37448;51.588;7.248;2023-04-25T09:37:28;4.22;;;0.80;;
51358;SDS011;37448;51.588;7.248;2023-04-25T09:39:39;3.50;;;0.88;;
51358;SDS011;37448;51.588;7.248;2023-04-25T09:41:46;5.72;;;1.00;;
51358;SDS011;37448;51.588;7.248;2023-04-25T09:43:47;5.65;;;0.82;;
51358;SDS011;37448;51.588;7.248;2023-04-25T09:45:49;5.55;;;0.80;;
51358;SDS011;37448;51.588;7.248;2023-04-25T09:47:55;2.90;;;0.60;;
51358;SDS011;37448;51.588;7.248;2023-04-25T09:49:58;2.40;;;0.70;;
51358;SDS011;37448;51.588;7.248;2023-04-25T09:51:59;5.03;;;1.50;;
51358;SDS011;37448;51.588;7.248;2023-04-25T09:54:19;7.07;;;1.30;;
51358;SDS011;37448;51.588;7.248;2023-04-25T09:56:22;3.75;;;1.23;;
51358;SDS011;37448;51.588;7.248;2023-04-25T09:58:24;2.40;;;0.50;;
51358;SDS011;37448;51.588;7.248;2023-04-25T10:00:24;4.75;;;1.05;;
51358;SDS011;37448;51.588;7.248;2023-04-25T10:02:26;3.47;;;1.02;;
51358;SDS011;37448;51.588;7.248;2023-04-25T10:04:31;3.95;;;0.80;;
51358;SDS011;37448;51.588;7.248;2023-04-25T10:06:38;2.78;;;0.75;;
51358;SDS011;37448;51.588;7.248;2023-04-25T10:08:42;4.07;;;0.88;;
51358;SDS011;37448;51.588;7.248;2023-04-25T10:10:45;2.50;;;0.80;;
51358;SDS011;37448;51.588;7.248;2023-04-25T10:12:46;3.03;;;0.93;;
51358;SDS011;37448;51.588;7.248;2023-04-25T10:14:47;4.63;;;1.13;;
51358;SDS011;37448;51.588;7.248;2023-04-25T10:16:48;2.95;;;0.55;;
51358;SDS011;37448;51.588;7.248;2023-04-25T10:19:01;2.20;;;0.70;;
51358;SDS011;37448;51.588;7.248;2023-04-25T10:21:03;4.18;;;0.73;;
51358;SDS011;37448;51.588;7.248;2023-04-25T10:23:12;3.70;;;0.82;;
51358;SDS011;37448;51.588;7.248;2023-04-25T10:27:15;2.40;;;0.50;;
51358;SDS011;37448;51.588;7.248;2023-04-25T10:29:21;4.75;;;1.20;;
51358;SDS011;37448;51.588;7.248;2023-04-25T10:31:25;2.15;;;1.00;;
51358;SDS011;37448;51.588;7.248;2023-04-25T10:33:32;3.97;;;0.88;;
51358;SDS011;37448;51.588;7.248;2023-04-25T10:35:42;4.40;;;0.90;;
51358;SDS011;37448;51.588;7.248;2023-04-25T10:38:00;4.10;;;1.00;;
51358;SDS011;37448;51.588;7.248;2023-04-25T10:40:09;3.53;;;0.70;;
51358;SDS011;37448;51.588;7.248;2023-04-25T10:42:10;6.50;;;1.42;;
51358;SDS011;37448;51.588;7.248;2023-04-25T10:44:11;3.05;;;0.77;;
51358;SDS011;37448;51.588;7.248;2023-04-25T10:46:15;6.57;;;1.42;;
51358;SDS011;37448;51.588;7.248;2023-04-25T10:48:29;5.53;;;0.80;;
51358;SDS011;37448;51.588;7.248;2023-04-25T10:50:37;5.10;;;1.30;;
51358;SDS011;37448;51.588;7.248;2023-04-25T10:52:39;2.58;;;0.88;;
51358;SDS011;37448;51.588;7.248;2023-04-25T10:54:46;4.43;;;1.20;;
51358;SDS011;37448;51.588;7.248;2023-04-25T10:56:48;5.15;;;0.80;;
51358;SDS011;37448;51.588;7.248;2023-04-25T10:58:50;3.30;;;1.00;;
51358;SDS011;37448;51.588;7.248;2023-04-25T11:00:50;5.18;;;1.13;;
51358;SDS011;37448;51.588;7.248;2023-04-25T11:02:52;4.93;;;1.00;;
51358;SDS011;37448;51.588;7.248;2023-04-25T11:04:53;6.07;;;1.20;;
51358;SDS011;37448;51.588;7.248;2023-04-25T11:08:54;1.92;;;1.23;;
51358;SDS011;37448;51.588;7.248;2023-04-25T11:10:55;4.75;;;1.35;;
51358;SDS011;37448;51.588;7.248;2023-04-25T11:12:56;2.88;;;0.95;;
51358;SDS011;37448;51.588;7.248;2023-04-25T11:15:00;4.50;;;1.33;;
51358;SDS011;37448;51.588;7.248;2023-04-25T11:17:01;2.63;;;0.88;;
51358;SDS011;37448;51.588;7.248;2023-04-25T11:19:02;2.90;;;0.80;;
51358;SDS011;37448;51.588;7.248;2023-04-25T11:21:03;5.88;;;2.00;;
51358;SDS011;37448;51.588;7.248;2023-04-25T11:23:04;3.72;;;1.13;;
51358;SDS011;37448;51.588;7.248;2023-04-25T11:25:05;3.83;;;1.13;;
51358;SDS011;37448;51.588;7.248;2023-04-25T11:27:06;1.55;;;0.45;;
51358;SDS011;37448;51.588;7.248;2023-04-25T11:29:07;2.13;;;0.70;;
51358;SDS011;37448;51.588;7.248;2023-04-25T11:31:07;2.38;;;0.60;;
51358;SDS011;37448;51.588;7.248;2023-04-25T11:33:09;3.13;;;0.82;;
51358;SDS011;37448;51.588;7.248;2023-04-25T11:35:10;5.28;;;0.60;;
51358;SDS011;37448;51.588;7.248;2023-04-25T11:37:11;3.13;;;0.82;;
51358;SDS011;37448;51.588;7.248;2023-04-25T11:39:14;2.30;;;0.80;;
51358;SDS011;37448;51.588;7.248;2023-04-25T11:41:15;1.25;;;0.80;;
51358;SDS011;37448;51.588;7.248;2023-04-25T11:43:15;2.15;;;1.23;;
51358;SDS011;37448;51.588;7.248;2023-04-25T11:45:16;2.53;;;0.40;;
51358;SDS011;37448;51.588;7.248;2023-04-25T11:47:16;2.05;;;0.85;;
51358;SDS011;37448;51.588;7.248;2023-04-25T11:49:17;0.73;;;0.30;;
51358;SDS011;37448;51.588;7.248;2023-04-25T11:51:18;1.08;;;0.13;;
51358;SDS011;37448;51.588;7.248;2023-04-25T11:53:18;1.10;;;0.55;;
51358;SDS011;37448;51.588;7.248;2023-04-25T11:55:19;2.35;;;0.52;;
51358;SDS011;37448;51.588;7.248;2023-04-25T11:57:20;3.33;;;0.70;;
51358;SDS011;37448;51.588;7.248;2023-04-25T11:59:23;1.75;;;0.30;;
51358;SDS011;37448;51.588;7.248;2023-04-25T12:01:26;3.35;;;0.80;;
51358;SDS011;37448;51.588;7.248;2023-04-25T12:03:30;2.95;;;0.57;;
51358;SDS011;37448;51.588;7.248;2023-04-25T12:05:33;1.10;;;0.52;;
51358;SDS011;37448;51.588;7.248;2023-04-25T12:07:34;1.90;;;0.50;;
51358;SDS011;37448;51.588;7.248;2023-04-25T12:09:34;3.20;;;0.50;;
51358;SDS011;37448;51.588;7.248;2023-04-25T12:11:41;2.63;;;0.55;;
51358;SDS011;37448;51.588;7.248;2023-04-25T12:13:43;3.10;;;0.60;;
51358;SDS011;37448;51.588;7.248;2023-04-25T12:15:44;3.90;;;0.68;;
51358;SDS011;37448;51.588;7.248;2023-04-25T12:17:48;1.63;;;0.50;;
51358;SDS011;37448;51.588;7.248;2023-04-25T12:19:49;3.00;;;0.50;;
51358;SDS011;37448;51.588;7.248;2023-04-25T12:21:50;3.97;;;0.50;;
51358;SDS011;37448;51.588;7.248;2023-04-25T12:23:50;2.92;;;0.45;;
51358;SDS011;37448;51.588;7.248;2023-04-25T12:25:52;1.60;;;0.70;;
51358;SDS011;37448;51.588;7.248;2023-04-25T12:27:52;0.68;;;0.30;;
51358;SDS011;37448;51.588;7.248;2023-04-25T12:29:53;2.67;;;0.77;;
51358;SDS011;37448;51.588;7.248;2023-04-25T12:31:56;3.20;;;0.70;;
51358;SDS011;37448;51.588;7.248;2023-04-25T12:33:56;2.85;;;0.50;;